createdAt,value
2022-12-25T00:01:12.476Z,15.91
2022-12-25T00:03:39.855Z,15.94
2022-12-25T00:06:07.596Z,16.01
2022-12-25T00:08:35.578Z,16.01
2022-12-25T00:11:05.690Z,16.05
2022-12-25T00:13:33.078Z,16.08
2022-12-25T00:16:06.413Z,16.20
2022-12-25T00:18:33.517Z,16.25
2022-12-25T00:21:03.783Z,16.34
2022-12-25T00:23:31.996Z,16.38
2022-12-25T00:25:58.952Z,16.41
2022-12-25T00:28:26.561Z,16.42
2022-12-25T00:30:53.341Z,16.44
2022-12-25T00:33:21.588Z,16.36
2022-12-25T00:35:58.524Z,16.31
2022-12-25T00:38:25.585Z,16.18
2022-12-25T00:40:52.628Z,16.14
2022-12-25T00:43:19.912Z,16.12
2022-12-25T00:45:55.550Z,16.12
2022-12-25T00:48:25.319Z,16.07
2022-12-25T00:50:56.241Z,16.05
2022-12-25T00:53:23.707Z,16.05
2022-12-25T00:55:52.664Z,16.00
2022-12-25T00:58:19.977Z,15.97
2022-12-25T01:00:48.573Z,15.93
2022-12-25T01:03:16.435Z,15.81
2022-12-25T01:05:55.095Z,15.76
2022-12-25T01:08:21.928Z,15.60
2022-12-25T01:10:54.830Z,15.56
2022-12-25T01:13:21.725Z,15.46
2022-12-25T01:15:49.318Z,15.39
2022-12-25T01:18:16.127Z,15.39
2022-12-25T01:20:44.446Z,15.38
2022-12-25T01:23:11.600Z,15.36
2022-12-25T01:25:38.505Z,15.43
2022-12-25T01:28:05.826Z,15.52
2022-12-25T01:30:33.204Z,15.54
2022-12-25T01:33:00.389Z,15.59
2022-12-25T01:35:27.098Z,15.66
2022-12-25T01:37:55.491Z,15.67
2022-12-25T01:40:22.616Z,15.67
2022-12-25T01:42:49.589Z,15.69
2022-12-25T01:45:37.917Z,15.70
2022-12-25T01:48:11.784Z,15.66
2022-12-25T01:50:43.224Z,15.66
2022-12-25T01:53:12.273Z,15.64
2022-12-25T01:55:43.575Z,15.66
2022-12-25T01:58:10.569Z,15.53
2022-12-25T02:00:37.416Z,15.52
2022-12-25T02:03:05.004Z,15.46
2022-12-25T02:05:35.130Z,15.43
2022-12-25T02:08:09.124Z,15.39
2022-12-25T02:10:38.075Z,15.28
2022-12-25T02:13:06.679Z,15.13
2022-12-25T02:15:47.217Z,14.99
2022-12-25T02:18:24.763Z,14.91
2022-12-25T02:21:13.553Z,14.75
2022-12-25T02:24:09.676Z,14.54
2022-12-25T02:27:09.526Z,14.36
2022-12-25T02:29:49.438Z,14.24
2022-12-25T02:32:27.367Z,14.23
2022-12-25T02:35:02.753Z,14.17
2022-12-25T02:37:40.437Z,14.16
2022-12-25T02:40:16.649Z,14.17
2022-12-25T02:42:51.050Z,14.07
2022-12-25T02:45:25.930Z,14.09
2022-12-25T02:47:52.968Z,14.06
2022-12-25T02:50:23.797Z,14.12
2022-12-25T02:52:53.844Z,14.06
2022-12-25T02:55:28.398Z,14.06
2022-12-25T02:58:02.220Z,14.06
2022-12-25T03:00:34.824Z,14.05
2022-12-25T03:03:06.547Z,14.07
2022-12-25T03:05:41.168Z,14.10
2022-12-25T03:08:14.556Z,14.17
2022-12-25T03:10:49.837Z,14.31
2022-12-25T03:13:23.323Z,14.38
2022-12-25T03:15:58.409Z,14.42
2022-12-25T03:18:29.238Z,14.52
2022-12-25T03:20:56.382Z,14.61
2022-12-25T03:23:31.867Z,14.65
2022-12-25T03:25:58.763Z,14.63
2022-12-25T03:28:26.695Z,14.65
2022-12-25T03:31:07.347Z,14.71
2022-12-25T03:33:57.048Z,14.71
2022-12-25T03:36:35.663Z,14.74
2022-12-25T03:39:13.347Z,14.77
2022-12-25T03:41:48.896Z,14.67
2022-12-25T03:44:24.673Z,14.48
2022-12-25T03:47:01.187Z,14.48
2022-12-25T03:49:38.813Z,14.36
2022-12-25T03:52:11.000Z,14.36
2022-12-25T03:54:43.546Z,14.31
2022-12-25T03:57:11.811Z,14.31
2022-12-25T03:59:40.175Z,14.34
2022-12-25T04:02:09.887Z,14.36
2022-12-25T04:04:37.096Z,14.36
2022-12-25T04:07:05.621Z,14.38
2022-12-25T04:09:32.580Z,14.44
2022-12-25T04:12:02.895Z,14.41
2022-12-25T04:14:30.332Z,14.30
2022-12-25T04:16:57.418Z,14.19
2022-12-25T04:19:28.782Z,14.21
2022-12-25T04:22:03.745Z,14.19
2022-12-25T04:24:30.927Z,14.20
2022-12-25T04:26:57.890Z,14.17
2022-12-25T04:29:24.857Z,13.99
2022-12-25T04:31:51.664Z,13.99
2022-12-25T04:34:21.463Z,14.06
2022-12-25T04:36:49.664Z,14.06
2022-12-25T04:39:18.498Z,14.05
2022-12-25T04:41:45.984Z,13.91
2022-12-25T04:44:13.319Z,13.87
2022-12-25T04:46:40.175Z,13.90
2022-12-25T04:49:07.070Z,14.00
2022-12-25T04:51:37.027Z,14.13
2022-12-25T04:54:05.487Z,14.24
2022-12-25T04:56:33.758Z,14.30
2022-12-25T04:59:00.654Z,14.27
2022-12-25T05:01:37.717Z,14.27
2022-12-25T05:04:14.825Z,14.14
2022-12-25T05:06:52.015Z,14.05
2022-12-25T05:09:30.373Z,14.06
2022-12-25T05:12:07.585Z,14.09
2022-12-25T05:14:44.515Z,14.14
2022-12-25T05:17:21.286Z,14.20
2022-12-25T05:19:51.597Z,14.31
2022-12-25T05:22:28.371Z,14.41
2022-12-25T05:25:04.906Z,14.38
2022-12-25T05:30:37.311Z,14.16
2022-12-25T05:33:11.756Z,14.23
2022-12-25T05:35:46.715Z,14.26
2022-12-25T05:38:18.643Z,14.19
2022-12-25T05:40:52.999Z,14.12
2022-12-25T05:43:26.554Z,14.09
2022-12-25T05:46:05.722Z,13.87
2022-12-25T05:48:42.579Z,13.75
2022-12-25T05:51:19.659Z,13.58
2022-12-25T05:53:49.997Z,13.48
2022-12-25T05:56:27.334Z,13.62
2022-12-25T05:59:03.664Z,13.59
2022-12-25T06:01:38.096Z,13.48
2022-12-25T06:04:12.231Z,13.42
2022-12-25T06:06:46.791Z,13.34
2022-12-25T06:09:23.869Z,13.45
2022-12-25T06:11:59.435Z,13.55
2022-12-25T06:14:32.461Z,13.44
2022-12-25T06:17:05.829Z,13.54
2022-12-25T06:19:35.091Z,13.48
2022-12-25T06:22:08.854Z,13.44
2022-12-25T06:24:45.867Z,13.51
2022-12-25T06:27:17.326Z,13.38
2022-12-25T06:29:52.201Z,13.37
2022-12-25T06:32:28.964Z,13.39
2022-12-25T06:35:07.072Z,13.38
2022-12-25T06:37:41.609Z,13.48
2022-12-25T06:40:19.011Z,13.37
2022-12-25T06:42:57.199Z,13.37
2022-12-25T06:45:29.095Z,13.48
2022-12-25T06:48:06.129Z,13.52
2022-12-25T06:50:43.113Z,13.61
2022-12-25T06:53:11.444Z,13.61
2022-12-25T06:55:48.368Z,13.63
2022-12-25T06:58:24.645Z,13.70
2022-12-25T07:01:06.984Z,13.76
2022-12-25T07:04:15.563Z,13.78
2022-12-25T07:06:48.635Z,13.73
2022-12-25T07:09:22.032Z,13.72
2022-12-25T07:12:03.955Z,13.70
2022-12-25T07:14:34.912Z,13.59
2022-12-25T07:17:11.847Z,13.55
2022-12-25T07:19:47.433Z,13.61
2022-12-25T07:22:21.059Z,13.72
2022-12-25T07:24:58.131Z,13.68
2022-12-25T07:27:34.863Z,13.62
2022-12-25T07:30:04.647Z,13.65
2022-12-25T07:32:32.375Z,13.51
2022-12-25T07:34:59.267Z,13.62
2022-12-25T07:37:27.563Z,13.63
2022-12-25T07:40:02.339Z,13.69
2022-12-25T07:42:35.947Z,13.69
2022-12-25T07:45:12.336Z,13.58
2022-12-25T07:47:45.608Z,13.59
2022-12-25T07:50:17.745Z,13.83
2022-12-25T07:52:48.858Z,14.00
2022-12-25T07:55:16.192Z,14.02
2022-12-25T07:57:44.851Z,14.12
2022-12-25T08:00:15.701Z,14.21
2022-12-25T08:02:44.902Z,14.34
2022-12-25T08:05:15.397Z,14.40
2022-12-25T08:07:57.300Z,14.48
2022-12-25T08:10:28.079Z,14.48
2022-12-25T08:12:55.992Z,14.61
2022-12-25T08:15:24.207Z,14.65
2022-12-25T08:17:54.008Z,14.77
2022-12-25T08:20:20.919Z,14.81
2022-12-25T08:22:53.038Z,14.88
2022-12-25T08:25:23.251Z,14.93
2022-12-25T08:28:00.488Z,14.95
2022-12-25T08:30:33.497Z,14.91
2022-12-25T08:33:00.962Z,14.98
2022-12-25T08:35:27.934Z,15.09
2022-12-25T08:37:55.447Z,15.06
2022-12-25T08:40:25.365Z,15.08
2022-12-25T08:42:56.441Z,14.98
2022-12-25T08:45:23.948Z,14.81
2022-12-25T08:47:56.411Z,14.77
2022-12-25T08:50:24.275Z,14.78
2022-12-25T08:52:51.368Z,14.72
2022-12-25T08:55:18.536Z,14.81
2022-12-25T08:57:45.660Z,14.87
2022-12-25T09:00:13.921Z,14.89
2022-12-25T09:02:41.150Z,14.89
2022-12-25T09:05:10.387Z,14.85
2022-12-25T09:07:37.308Z,14.72
2022-12-25T09:10:05.325Z,14.87
2022-12-25T09:12:32.212Z,14.91
2022-12-25T09:14:59.251Z,14.70
2022-12-25T09:17:26.042Z,14.72
2022-12-25T09:19:53.430Z,14.68
2022-12-25T09:22:21.873Z,14.81
2022-12-25T09:24:49.294Z,14.99
2022-12-25T09:27:16.349Z,15.05
2022-12-25T09:29:43.478Z,15.02
2022-12-25T09:32:10.598Z,15.03
2022-12-25T09:34:37.617Z,14.88
2022-12-25T09:37:04.456Z,14.98
2022-12-25T09:39:32.745Z,15.13
2022-12-25T09:42:03.738Z,15.22
2022-12-25T09:44:34.790Z,15.35
2022-12-25T09:47:06.489Z,15.30
2022-12-25T09:49:40.171Z,15.23
2022-12-25T09:52:15.214Z,15.23
2022-12-25T09:54:54.124Z,15.36
2022-12-25T09:57:21.613Z,15.39
2022-12-25T09:59:48.616Z,15.53
2022-12-25T10:02:50.645Z,15.49
2022-12-25T10:05:47.139Z,15.39
2022-12-25T10:08:30.593Z,15.16
2022-12-25T10:11:17.458Z,15.23
2022-12-25T10:14:08.446Z,15.23
2022-12-25T10:16:48.732Z,15.08
2022-12-25T10:19:31.338Z,15.32
2022-12-25T10:22:02.243Z,15.09
2022-12-25T10:24:36.586Z,15.19
2022-12-25T10:27:14.309Z,14.98
2022-12-25T10:29:43.758Z,14.93
2022-12-25T10:32:10.962Z,15.19
2022-12-25T10:34:41.084Z,15.11
2022-12-25T10:37:10.880Z,15.01
2022-12-25T10:39:42.447Z,15.23
2022-12-25T10:42:42.565Z,15.40
2022-12-25T10:45:10.204Z,15.46
2022-12-25T10:47:42.059Z,15.49
2022-12-25T10:50:18.818Z,15.66
2022-12-25T10:52:59.323Z,15.83
2022-12-25T10:55:29.038Z,15.74
2022-12-25T10:57:58.559Z,15.71
2022-12-25T11:00:29.300Z,15.81
2022-12-25T11:02:57.501Z,15.86
2022-12-25T11:05:29.817Z,15.98
2022-12-25T11:07:58.115Z,15.64
2022-12-25T11:10:30.071Z,15.70
2022-12-25T11:12:59.701Z,15.81
2022-12-25T11:15:35.664Z,15.83
2022-12-25T11:18:03.136Z,15.97
2022-12-25T11:20:30.583Z,15.83
2022-12-25T11:22:57.403Z,16.01
2022-12-25T11:25:27.668Z,15.98
2022-12-25T11:28:02.261Z,16.15
2022-12-25T11:30:32.655Z,16.29
2022-12-25T11:33:06.527Z,16.36
2022-12-25T11:35:43.818Z,16.25
2022-12-25T11:38:10.710Z,16.25
2022-12-25T11:40:46.964Z,16.14
2022-12-25T11:43:23.423Z,16.26
2022-12-25T11:45:56.588Z,16.32
2022-12-25T11:48:31.010Z,16.38
2022-12-25T11:51:02.109Z,16.45
2022-12-25T11:53:36.562Z,16.44
2022-12-25T11:56:08.874Z,16.49
2022-12-25T11:58:44.093Z,16.48
2022-12-25T12:01:24.760Z,16.49
2022-12-25T12:03:55.413Z,16.48
2022-12-25T12:06:32.603Z,16.44
2022-12-25T12:09:17.409Z,16.51
2022-12-25T12:11:53.716Z,16.44
2022-12-25T12:14:45.194Z,16.36
2022-12-25T12:17:15.104Z,16.28
2022-12-25T12:19:42.236Z,16.40
2022-12-25T12:22:20.049Z,16.53
2022-12-25T12:24:55.780Z,16.49
2022-12-25T12:27:31.460Z,16.51
2022-12-25T12:30:00.261Z,16.42
2022-12-25T12:32:39.058Z,16.22
2022-12-25T12:35:15.439Z,16.20
2022-12-25T12:37:44.508Z,16.38
2022-12-25T12:40:32.689Z,16.63
2022-12-25T12:43:00.557Z,16.61
2022-12-25T12:45:33.354Z,16.69
2022-12-25T12:48:00.535Z,16.80
2022-12-25T12:50:34.554Z,16.80
2022-12-25T12:53:23.876Z,16.85
2022-12-25T12:55:52.137Z,16.72
2022-12-25T12:58:29.528Z,16.86
2022-12-25T13:01:15.155Z,16.89
2022-12-25T13:04:24.808Z,16.89
2022-12-25T13:07:04.103Z,16.86
2022-12-25T13:09:48.558Z,16.80
2022-12-25T13:12:17.410Z,16.68
2022-12-25T13:14:46.322Z,16.55
2022-12-25T13:17:21.934Z,16.52
2022-12-25T13:19:54.903Z,16.49
2022-12-25T13:22:25.169Z,16.58
2022-12-25T13:24:57.986Z,16.68
2022-12-25T13:27:28.772Z,16.68
2022-12-25T13:29:56.062Z,16.71
2022-12-25T13:32:29.388Z,16.76
2022-12-25T13:34:58.400Z,16.83
2022-12-25T13:37:28.569Z,16.92
2022-12-25T13:39:58.912Z,16.92
2022-12-25T13:42:30.047Z,16.92
2022-12-25T13:45:00.774Z,16.94
2022-12-25T13:47:34.884Z,16.96
2022-12-25T13:50:16.838Z,16.99
2022-12-25T13:52:43.820Z,16.96
2022-12-25T13:55:14.200Z,17.03
2022-12-25T13:57:45.105Z,17.07
2022-12-25T14:00:21.194Z,17.07
2022-12-25T14:02:51.512Z,17.09
2022-12-25T14:05:37.940Z,17.12
2022-12-25T14:08:15.391Z,17.13
2022-12-25T14:10:46.848Z,17.06
2022-12-25T14:13:16.121Z,16.93
2022-12-25T14:15:46.005Z,16.94
2022-12-25T14:18:17.300Z,16.89
2022-12-25T14:20:59.279Z,16.94
2022-12-25T14:23:28.083Z,16.90
2022-12-25T14:25:55.263Z,16.94
2022-12-25T14:28:28.089Z,16.99
2022-12-25T14:30:55.439Z,16.87
2022-12-25T14:33:26.960Z,16.90
2022-12-25T14:35:54.195Z,16.92
2022-12-25T14:38:26.185Z,16.94
2022-12-25T14:41:00.818Z,16.99
2022-12-25T14:43:30.225Z,16.97
2022-12-25T14:46:00.543Z,16.93
2022-12-25T14:48:31.975Z,16.87
2022-12-25T14:51:03.297Z,16.83
2022-12-25T14:53:37.094Z,16.87
2022-12-25T14:56:08.211Z,16.90
2022-12-25T14:58:43.306Z,16.96
2022-12-25T15:01:22.781Z,16.96
2022-12-25T15:03:51.230Z,16.94
2022-12-25T15:06:21.335Z,16.92
2022-12-25T15:08:59.694Z,16.87
2022-12-25T15:11:27.719Z,16.79
2022-12-25T15:13:54.536Z,16.73
2022-12-25T15:16:24.692Z,16.71
2022-12-25T15:18:54.565Z,16.69
2022-12-25T15:21:26.365Z,16.72
2022-12-25T15:23:54.766Z,16.65
2022-12-25T15:26:22.094Z,16.63
2022-12-25T15:28:49.604Z,16.63
2022-12-25T15:31:22.256Z,16.71
2022-12-25T15:33:50.482Z,16.72
2022-12-25T15:36:19.081Z,16.71
2022-12-25T15:38:46.155Z,16.75
2022-12-25T15:41:16.533Z,16.79
2022-12-25T15:43:43.457Z,16.73
2022-12-25T15:46:10.246Z,16.69
2022-12-25T15:48:37.218Z,16.59
2022-12-25T15:51:04.287Z,16.55
2022-12-25T15:53:32.544Z,16.55
2022-12-25T15:55:59.409Z,16.52
2022-12-25T15:58:26.728Z,16.53
2022-12-25T16:00:53.757Z,16.49
2022-12-25T16:03:21.209Z,16.49
2022-12-25T16:05:48.380Z,16.44
2022-12-25T16:08:15.433Z,16.41
2022-12-25T16:10:43.819Z,16.41
2022-12-25T16:13:10.781Z,16.41
2022-12-25T16:15:37.789Z,16.38
2022-12-25T16:18:05.462Z,16.40
2022-12-25T16:20:32.800Z,16.45
2022-12-25T16:22:59.932Z,16.49
2022-12-25T16:25:26.659Z,16.59
2022-12-25T16:27:55.132Z,16.66
2022-12-25T16:30:22.039Z,16.69
2022-12-25T16:32:50.461Z,16.73
2022-12-25T16:35:17.733Z,16.77
2022-12-25T16:37:44.711Z,16.82
2022-12-25T16:40:12.055Z,16.82
2022-12-25T16:42:39.255Z,16.82
2022-12-25T16:45:08.631Z,16.83
2022-12-25T16:47:36.383Z,16.85
2022-12-25T16:50:05.599Z,16.83
2022-12-25T16:52:34.442Z,16.85
2022-12-25T16:57:53.461Z,16.82
2022-12-25T17:00:22.202Z,16.76
2022-12-25T17:02:49.235Z,16.75
2022-12-25T17:05:16.515Z,16.75
2022-12-25T17:07:43.423Z,16.75
2022-12-25T17:10:12.016Z,16.73
2022-12-25T17:12:39.191Z,16.71
2022-12-25T17:15:07.672Z,16.71
2022-12-25T17:17:36.075Z,16.71
2022-12-25T17:20:03.632Z,16.69
2022-12-25T17:22:30.997Z,16.69
2022-12-25T17:24:57.761Z,16.63
2022-12-25T17:27:24.800Z,16.58
2022-12-25T17:29:51.803Z,16.52
2022-12-25T17:32:18.570Z,16.42
2022-12-25T17:34:46.994Z,16.34
2022-12-25T17:37:13.999Z,16.25
2022-12-25T17:39:40.887Z,16.20
2022-12-25T17:42:08.137Z,16.17
2022-12-25T17:44:35.105Z,16.18
2022-12-25T17:47:01.969Z,16.18
2022-12-25T17:49:29.174Z,16.18
2022-12-25T17:51:57.402Z,16.14
2022-12-25T17:54:24.152Z,16.17
2022-12-25T17:56:51.409Z,16.18
2022-12-25T17:59:18.489Z,16.21
2022-12-25T18:01:47.069Z,16.22
2022-12-25T18:04:14.186Z,16.21
2022-12-25T18:06:41.564Z,16.21
2022-12-25T18:09:09.715Z,16.22
2022-12-25T18:11:39.556Z,16.24
2022-12-25T18:14:09.158Z,16.22
2022-12-25T18:16:39.847Z,16.08
2022-12-25T18:19:07.920Z,16.05
2022-12-25T18:21:34.717Z,15.97
2022-12-25T18:24:02.802Z,15.94
2022-12-25T18:26:32.210Z,16.00
2022-12-25T18:29:00.271Z,15.97
2022-12-25T18:31:28.522Z,16.04
2022-12-25T18:33:56.608Z,16.10
2022-12-25T18:36:27.856Z,16.15
2022-12-25T18:38:55.659Z,16.14
2022-12-25T18:41:23.600Z,16.18
2022-12-25T18:43:55.686Z,16.22
2022-12-25T18:46:25.373Z,16.31
2022-12-25T18:48:53.072Z,16.40
2022-12-25T18:51:20.009Z,16.49
2022-12-25T18:53:46.970Z,16.55
2022-12-25T18:56:17.370Z,16.65
2022-12-25T18:58:45.288Z,16.71
2022-12-25T19:01:17.642Z,16.76
2022-12-25T19:03:45.367Z,16.77
2022-12-25T19:06:17.556Z,16.85
2022-12-25T19:08:45.671Z,16.76
2022-12-25T19:11:13.258Z,16.75
2022-12-25T19:13:40.374Z,16.69
2022-12-25T19:16:07.605Z,16.68
2022-12-25T19:18:35.752Z,16.63
2022-12-25T19:21:04.419Z,16.63
2022-12-25T19:23:31.469Z,16.63
2022-12-25T19:25:58.554Z,16.62
2022-12-25T19:28:25.907Z,16.65
2022-12-25T19:30:53.543Z,16.66
2022-12-25T19:33:21.301Z,16.68
2022-12-25T19:35:50.174Z,16.69
2022-12-25T19:38:17.564Z,16.71
2022-12-25T19:40:44.263Z,16.71
2022-12-25T19:43:11.322Z,16.66
2022-12-25T19:45:38.652Z,16.63
2022-12-25T19:48:05.994Z,16.65
2022-12-25T19:50:33.166Z,16.69
2022-12-25T19:53:01.514Z,16.75
2022-12-25T19:55:28.391Z,16.79
2022-12-25T19:57:55.352Z,16.82
2022-12-25T20:00:22.126Z,16.85
2022-12-25T20:02:49.044Z,16.90
2022-12-25T20:05:16.331Z,16.94
2022-12-25T20:07:43.343Z,17.02
2022-12-25T20:10:11.746Z,17.09
2022-12-25T20:12:38.525Z,17.12
2022-12-25T20:15:06.857Z,17.17
2022-12-25T20:17:33.550Z,17.22
2022-12-25T20:20:00.358Z,17.24
2022-12-25T20:22:27.156Z,17.23
2022-12-25T20:24:54.394Z,17.24
2022-12-25T20:27:22.510Z,17.27
2022-12-25T20:29:49.536Z,17.26
2022-12-25T20:32:16.884Z,17.28
2022-12-25T20:34:43.943Z,17.30
2022-12-25T20:37:10.665Z,17.30
2022-12-25T20:39:38.599Z,17.24
2022-12-25T20:42:05.476Z,17.22
2022-12-25T20:44:33.649Z,17.17
2022-12-25T20:47:00.604Z,17.17
2022-12-25T20:49:27.853Z,17.19
2022-12-25T20:51:57.390Z,17.22
2022-12-25T20:54:28.327Z,17.22
2022-12-25T20:56:55.311Z,17.22
2022-12-25T20:59:22.693Z,17.23
2022-12-25T21:01:50.938Z,17.23
2022-12-25T21:04:18.109Z,17.26
2022-12-25T21:06:45.317Z,17.27
2022-12-25T21:09:12.173Z,17.27
2022-12-25T21:11:39.037Z,17.23
2022-12-25T21:14:06.038Z,17.17
2022-12-25T21:16:33.300Z,17.14
2022-12-25T21:19:02.141Z,17.04
2022-12-25T21:21:29.165Z,17.04
2022-12-25T21:23:56.635Z,17.02
2022-12-25T21:26:26.766Z,17.00
2022-12-25T21:28:57.389Z,17.02
2022-12-25T21:31:25.165Z,17.06
2022-12-25T21:33:53.435Z,17.09
2022-12-25T21:36:26.110Z,17.16
2022-12-25T21:38:56.343Z,17.17
2022-12-25T21:41:23.850Z,17.23
2022-12-25T21:43:51.299Z,17.24
2022-12-25T21:46:18.479Z,17.30
2022-12-25T21:48:45.822Z,17.30
2022-12-25T21:51:16.415Z,17.36
2022-12-25T21:53:44.715Z,17.34
2022-12-25T21:56:11.694Z,17.36
2022-12-25T21:58:38.735Z,17.40
2022-12-25T22:04:02.891Z,17.44
2022-12-25T22:06:29.778Z,17.43
2022-12-25T22:08:58.455Z,17.40
2022-12-25T22:11:26.763Z,17.43
2022-12-25T22:13:53.802Z,17.43
2022-12-25T22:16:20.753Z,17.43
2022-12-25T22:18:47.576Z,17.45
2022-12-25T22:21:18.608Z,17.47
2022-12-25T22:23:45.583Z,17.48
2022-12-25T22:26:20.640Z,17.48
2022-12-25T22:28:49.752Z,17.45
2022-12-25T22:31:16.803Z,17.47
2022-12-25T22:33:43.765Z,17.48
2022-12-25T22:36:10.607Z,17.45
2022-12-25T22:38:37.474Z,17.44
2022-12-25T22:41:05.317Z,17.47
2022-12-25T22:44:06.748Z,17.47
2022-12-25T22:46:20.985Z,17.45
2022-12-25T22:48:47.778Z,17.45
2022-12-25T22:51:15.229Z,17.45
2022-12-25T22:53:42.522Z,17.45
2022-12-25T22:56:09.865Z,17.47
2022-12-25T22:58:38.110Z,17.44
2022-12-25T23:01:08.745Z,17.47
2022-12-25T23:04:01.441Z,17.44
2022-12-25T23:06:29.132Z,17.50
2022-12-25T23:08:56.364Z,17.45
2022-12-25T23:11:23.765Z,17.43
2022-12-25T23:13:51.972Z,17.36
2022-12-25T23:16:18.846Z,17.31
2022-12-25T23:18:45.951Z,17.23
2022-12-25T23:21:14.254Z,17.22
2022-12-25T23:23:41.192Z,17.16
2022-12-25T23:26:08.605Z,17.13
2022-12-25T23:28:36.585Z,17.13
2022-12-25T23:31:05.357Z,17.13
2022-12-25T23:33:32.667Z,17.12
2022-12-25T23:36:02.048Z,17.10
2022-12-25T23:38:28.966Z,17.14
2022-12-25T23:40:56.779Z,17.10
2022-12-25T23:43:23.637Z,17.02
2022-12-25T23:45:50.449Z,16.96
2022-12-25T23:48:18.572Z,16.96
2022-12-25T23:50:45.604Z,16.97
2022-12-25T23:53:12.603Z,17.00
2022-12-25T23:55:39.398Z,17.04
2022-12-25T23:58:06.870Z,17.09
